Time;durP1;ratioP1;P1;durP2;ratioP2;P2;SDS_P1;SDS_P2;PMS_P1;PMS_P2;Temp;Humidity;BMP_temperature;BMP_pressure;BME280_temperature;BME280_humidity;BME280_pressure;Samples;Min_cycle;Max_cycle;Signal;HPM_P1;HPM_P2
2021/07/26 00:00:47;;;;;;;30.80;28.93;;;;;;;;;;4962547;28;20467;-74
2021/07/26 00:03:14;;;;;;;30.53;28.63;;;;;;;;;;4971778;28;20832;-74
2021/07/26 00:05:41;;;;;;;31.13;29.17;;;;;;;;;;4973133;28;20830;-73
2021/07/26 00:08:08;;;;;;;32.07;30.13;;;;;;;;;;4971671;28;20458;-73
2021/07/26 00:10:35;;;;;;;30.60;28.70;;;;;;;;;;4972525;28;20489;-74
2021/07/26 00:13:03;;;;;;;30.30;28.20;;;;;;;;;;4972375;28;20510;-74
2021/07/26 00:15:31;;;;;;;31.27;29.27;;;;;;;;;;4972440;28;20443;-74
2021/07/26 00:17:58;;;;;;;31.50;29.47;;;;;;;;;;4962749;28;20457;-74
2021/07/26 00:20:25;;;;;;;30.83;28.87;;;;;;;;;;4952860;28;20459;-74
2021/07/26 00:22:52;;;;;;;30.83;28.83;;;;;;;;;;4962804;28;20466;-73
2021/07/26 00:25:21;;;;;;;31.17;29.07;;;;;;;;;;4972978;28;20494;-73
2021/07/26 00:27:49;;;;;;;31.97;29.97;;;;;;;;;;4964462;28;20457;-73
2021/07/26 00:30:17;;;;;;;31.03;28.93;;;;;;;;;;4960231;28;20455;-73
2021/07/26 00:32:46;;;;;;;31.67;29.67;;;;;;;;;;4970951;28;20479;-72
2021/07/26 00:35:13;;;;;;;32.60;30.40;;;;;;;;;;4964994;28;20993;-72
2021/07/26 00:37:40;;;;;;;31.60;29.43;;;;;;;;;;4973140;28;20451;-72
2021/07/26 00:40:09;;;;;;;31.27;29.27;;;;;;;;;;4972356;28;20456;-72
2021/07/26 00:42:36;;;;;;;31.57;29.67;;;;;;;;;;4972093;28;20522;-73
2021/07/26 00:45:04;;;;;;;31.87;29.70;;;;;;;;;;4972308;28;20487;-74
2021/07/26 00:47:31;;;;;;;33.10;30.53;;;;;;;;;;4973249;28;20461;-73
2021/07/26 00:50:00;;;;;;;31.80;29.80;;;;;;;;;;4967919;28;20457;-73
2021/07/26 00:52:27;;;;;;;32.00;30.10;;;;;;;;;;4953524;28;20477;-73
2021/07/26 00:54:54;;;;;;;32.00;29.90;;;;;;;;;;4966996;28;20462;-73
2021/07/26 00:57:22;;;;;;;31.27;29.27;;;;;;;;;;4971304;28;20471;-73
2021/07/26 00:59:51;;;;;;;31.83;29.90;;;;;;;;;;4966780;28;20456;-73
2021/07/26 01:02:18;;;;;;;32.13;30.13;;;;;;;;;;4954658;28;20468;-73
2021/07/26 01:04:45;;;;;;;33.30;31.00;;;;;;;;;;4972546;28;20495;-73
2021/07/26 01:07:13;;;;;;;32.67;30.43;;;;;;;;;;4972462;28;21005;-73
2021/07/26 01:09:40;;;;;;;31.90;30.00;;;;;;;;;;4970219;28;20455;-73
2021/07/26 01:12:08;;;;;;;31.53;29.53;;;;;;;;;;4957662;28;20475;-73
2021/07/26 01:14:35;;;;;;;32.93;30.90;;;;;;;;;;4953354;28;20455;-72
2021/07/26 01:17:03;;;;;;;30.87;28.97;;;;;;;;;;4955955;28;20455;-72
2021/07/26 01:19:30;;;;;;;31.50;29.60;;;;;;;;;;4961516;28;20503;-72
2021/07/26 01:21:59;;;;;;;33.57;31.37;;;;;;;;;;4971568;28;20478;-73
2021/07/26 01:24:26;;;;;;;32.00;30.00;;;;;;;;;;4970493;28;20542;-73
2021/07/26 01:26:53;;;;;;;33.70;31.40;;;;;;;;;;4972460;28;20447;-73
2021/07/26 01:29:22;;;;;;;33.93;31.53;;;;;;;;;;4959974;28;20459;-72
2021/07/26 01:31:49;;;;;;;34.67;32.37;;;;;;;;;;4966802;28;20479;-72
2021/07/26 01:34:16;;;;;;;35.00;32.60;;;;;;;;;;4973935;28;20816;-73
2021/07/26 01:36:43;;;;;;;33.43;31.17;;;;;;;;;;4976122;28;20486;-72
2021/07/26 01:39:11;;;;;;;34.93;32.60;;;;;;;;;;4967439;28;20456;-72
2021/07/26 01:41:39;;;;;;;35.07;32.77;;;;;;;;;;4956820;28;20502;-72
2021/07/26 01:44:11;;;;;;;34.07;31.90;;;;;;;;;;4964798;28;20491;-72
2021/07/26 01:46:56;;;;;;;34.53;32.23;;;;;;;;;;4976030;28;20939;-72
2021/07/26 01:49:31;;;;;;;36.43;33.90;;;;;;;;;;4975064;28;20447;-73
2021/07/26 01:51:58;;;;;;;35.73;33.17;;;;;;;;;;4975828;28;20473;-74
2021/07/26 01:54:27;;;;;;;37.43;34.77;;;;;;;;;;4975522;28;20955;-74
2021/07/26 01:56:54;;;;;;;37.70;35.30;;;;;;;;;;4974746;28;20837;-73
2021/07/26 01:59:21;;;;;;;35.60;33.13;;;;;;;;;;4966370;28;20452;-74
2021/07/26 02:01:48;;;;;;;36.80;34.13;;;;;;;;;;4975375;28;20471;-73
2021/07/26 02:04:15;;;;;;;36.17;33.87;;;;;;;;;;4971111;28;20842;-73
2021/07/26 02:06:42;;;;;;;37.60;35.20;;;;;;;;;;4976421;28;20455;-73
2021/07/26 02:09:10;;;;;;;37.17;34.77;;;;;;;;;;4976020;28;20452;-74
2021/07/26 02:11:38;;;;;;;36.70;34.30;;;;;;;;;;4978099;28;20475;-73
2021/07/26 02:14:09;;;;;;;37.60;35.07;;;;;;;;;;4975901;28;20452;-74
2021/07/26 02:16:36;;;;;;;37.97;35.57;;;;;;;;;;4975590;28;20912;-74
2021/07/26 02:19:04;;;;;;;39.77;36.67;;;;;;;;;;4974731;28;20460;-73
2021/07/26 02:21:31;;;;;;;41.00;38.30;;;;;;;;;;4975947;28;20526;-73
2021/07/26 02:23:58;;;;;;;41.70;39.03;;;;;;;;;;4957661;28;20463;-73
2021/07/26 02:26:25;;;;;;;42.07;39.27;;;;;;;;;;4956454;28;20963;-73
2021/07/26 02:28:54;;;;;;;39.37;36.87;;;;;;;;;;4972654;28;20458;-73
2021/07/26 02:31:21;;;;;;;40.03;37.43;;;;;;;;;;4975544;28;20479;-73
2021/07/26 02:33:48;;;;;;;40.37;37.97;;;;;;;;;;4966763;28;20458;-73
2021/07/26 02:36:15;;;;;;;39.20;36.40;;;;;;;;;;4974317;28;20826;-73
2021/07/26 02:38:42;;;;;;;39.17;36.67;;;;;;;;;;4974846;28;20458;-73
2021/07/26 02:41:10;;;;;;;38.70;36.20;;;;;;;;;;4974170;28;20487;-73
2021/07/26 02:43:37;;;;;;;38.30;35.97;;;;;;;;;;4973398;28;20457;-73
2021/07/26 02:46:06;;;;;;;39.93;37.43;;;;;;;;;;4975115;28;20483;-73
2021/07/26 02:48:33;;;;;;;39.57;36.93;;;;;;;;;;4975256;28;20806;-73
2021/07/26 02:51:00;;;;;;;39.30;36.70;;;;;;;;;;4975020;28;20479;-73
2021/07/26 02:53:27;;;;;;;38.87;36.50;;;;;;;;;;4975202;28;20462;-73
2021/07/26 02:55:54;;;;;;;37.60;35.30;;;;;;;;;;4973601;28;20462;-73
2021/07/26 02:58:22;;;;;;;37.03;34.73;;;;;;;;;;4970441;28;20449;-73
2021/07/26 03:00:49;;;;;;;37.83;35.30;;;;;;;;;;4954814;28;20479;-73
2021/07/26 03:03:17;;;;;;;38.20;35.70;;;;;;;;;;4955518;28;20456;-73
2021/07/26 03:05:44;;;;;;;38.77;36.03;;;;;;;;;;4960573;28;20485;-73
2021/07/26 03:08:12;;;;;;;35.93;33.73;;;;;;;;;;4973777;28;20969;-73
2021/07/26 03:10:39;;;;;;;36.60;34.30;;;;;;;;;;4973921;28;20452;-74
2021/07/26 03:13:06;;;;;;;35.77;33.57;;;;;;;;;;4973899;28;20451;-73
2021/07/26 03:15:33;;;;;;;36.90;34.40;;;;;;;;;;4972000;28;20455;-73
2021/07/26 03:18:00;;;;;;;35.97;33.77;;;;;;;;;;4974317;28;20820;-72
2021/07/26 03:20:29;;;;;;;35.17;33.07;;;;;;;;;;4973680;28;20452;-73
2021/07/26 03:22:59;;;;;;;36.63;34.00;;;;;;;;;;4973785;28;20459;-73
2021/07/26 03:25:27;;;;;;;36.77;34.27;;;;;;;;;;4973741;28;20848;-72
2021/07/26 03:27:54;;;;;;;35.53;33.23;;;;;;;;;;4971864;28;20466;-72
2021/07/26 03:30:22;;;;;;;34.90;32.77;;;;;;;;;;4965943;28;20460;-72
2021/07/26 03:32:49;;;;;;;35.67;33.37;;;;;;;;;;4973177;28;20471;-73
2021/07/26 03:35:17;;;;;;;35.50;33.10;;;;;;;;;;4973743;28;20451;-73
2021/07/26 03:37:45;;;;;;;35.30;32.87;;;;;;;;;;4956102;28;20460;-73
2021/07/26 03:40:13;;;;;;;35.90;33.60;;;;;;;;;;4970763;28;20460;-73
2021/07/26 03:42:41;;;;;;;35.67;33.27;;;;;;;;;;4954690;28;20574;-73
2021/07/26 03:45:08;;;;;;;35.83;33.40;;;;;;;;;;4954104;28;20506;-73
2021/07/26 03:47:38;;;;;;;34.80;32.47;;;;;;;;;;4968880;28;20465;-73
2021/07/26 03:50:06;;;;;;;34.67;32.37;;;;;;;;;;4971197;28;20483;-73
2021/07/26 03:52:42;;;;;;;34.93;32.73;;;;;;;;;;4973263;28;20479;-73
2021/07/26 03:55:11;;;;;;;35.13;32.53;;;;;;;;;;4973210;28;20451;-72
2021/07/26 03:57:38;;;;;;;34.90;32.60;;;;;;;;;;4973134;28;20461;-73
2021/07/26 04:00:06;;;;;;;36.47;34.00;;;;;;;;;;4969371;28;20459;-72
2021/07/26 04:02:33;;;;;;;35.20;32.90;;;;;;;;;;4972823;28;20555;-72
2021/07/26 04:05:00;;;;;;;37.70;35.10;;;;;;;;;;4972849;28;21059;-72
2021/07/26 04:07:31;;;;;;;35.30;32.90;;;;;;;;;;4973410;28;20460;-72
2021/07/26 04:10:02;;;;;;;38.27;35.67;;;;;;;;;;4972426;28;20470;-73
2021/07/26 04:12:33;;;;;;;36.83;34.00;;;;;;;;;;4960451;28;20483;-73
2021/07/26 04:15:07;;;;;;;36.17;33.70;;;;;;;;;;4972650;28;20464;-72
2021/07/26 04:17:34;;;;;;;38.20;35.67;;;;;;;;;;4972345;28;20487;-72
2021/07/26 04:20:01;;;;;;;37.13;34.70;;;;;;;;;;4963175;28;20453;-72
2021/07/26 04:22:28;;;;;;;38.83;36.20;;;;;;;;;;4969830;28;21012;-72
2021/07/26 04:24:55;;;;;;;39.53;36.53;;;;;;;;;;4973007;28;20493;-72
2021/07/26 04:27:22;;;;;;;38.20;35.70;;;;;;;;;;4958999;28;20456;-72
2021/07/26 04:29:51;;;;;;;40.07;37.07;;;;;;;;;;4973184;28;20458;-72
2021/07/26 04:32:18;;;;;;;37.77;34.97;;;;;;;;;;4972046;28;20477;-72
2021/07/26 04:34:45;;;;;;;37.73;34.80;;;;;;;;;;4972807;28;20447;-72
2021/07/26 04:37:12;;;;;;;38.13;35.40;;;;;;;;;;4972467;28;20458;-72
2021/07/26 04:39:39;;;;;;;37.17;34.57;;;;;;;;;;4972456;28;20833;-72
2021/07/26 04:42:06;;;;;;;39.70;36.87;;;;;;;;;;4971860;28;20483;-72
2021/07/26 04:44:36;;;;;;;39.70;36.80;;;;;;;;;;4959112;28;20830;-72
2021/07/26 04:47:05;;;;;;;40.70;37.70;;;;;;;;;;4967939;28;20462;-73
2021/07/26 04:49:32;;;;;;;40.90;38.10;;;;;;;;;;4972201;28;21017;-72
2021/07/26 04:51:59;;;;;;;40.30;37.40;;;;;;;;;;4969111;28;20486;-73
2021/07/26 04:54:26;;;;;;;41.57;38.63;;;;;;;;;;4971265;28;20458;-73
2021/07/26 04:56:53;;;;;;;41.13;38.30;;;;;;;;;;4967827;28;20448;-74
2021/07/26 04:59:20;;;;;;;39.93;37.13;;;;;;;;;;4964469;28;20818;-72
2021/07/26 05:01:47;;;;;;;41.07;38.13;;;;;;;;;;4963796;28;20478;-74
2021/07/26 05:04:16;;;;;;;41.40;38.00;;;;;;;;;;4953407;28;20456;-74
2021/07/26 05:06:43;;;;;;;41.20;38.10;;;;;;;;;;4962686;28;20479;-73
2021/07/26 05:09:10;;;;;;;38.37;35.47;;;;;;;;;;4973394;28;20460;-73
2021/07/26 05:11:40;;;;;;;40.23;37.53;;;;;;;;;;4963761;28;20479;-73
2021/07/26 05:14:07;;;;;;;36.93;34.23;;;;;;;;;;4957037;28;20519;-73
2021/07/26 05:16:34;;;;;;;37.20;34.67;;;;;;;;;;4975556;28;20460;-72
2021/07/26 05:19:02;;;;;;;37.13;34.73;;;;;;;;;;4976397;28;20447;-73
2021/07/26 05:21:30;;;;;;;37.10;34.60;;;;;;;;;;4975447;28;20565;-73
2021/07/26 05:23:57;;;;;;;37.40;34.80;;;;;;;;;;4964678;28;20460;-73
2021/07/26 05:26:24;;;;;;;36.47;33.87;;;;;;;;;;4972546;28;21005;-73
2021/07/26 05:28:51;;;;;;;35.13;32.80;;;;;;;;;;4976096;28;20451;-73
2021/07/26 05:31:19;;;;;;;36.73;34.23;;;;;;;;;;4975331;28;20483;-73
2021/07/26 05:33:46;;;;;;;35.63;33.20;;;;;;;;;;4976148;28;20830;-73
2021/07/26 05:36:13;;;;;;;36.50;34.00;;;;;;;;;;4975555;28;20487;-73
2021/07/26 05:38:41;;;;;;;36.77;34.37;;;;;;;;;;4975750;28;20570;-73
2021/07/26 05:41:08;;;;;;;37.30;34.53;;;;;;;;;;5012830;23;20485;-74
2021/07/26 05:43:36;;;;;;;36.90;34.07;;;;;;;;;;4950952;28;20468;-73
2021/07/26 05:46:03;;;;;;;37.37;34.93;;;;;;;;;;4955960;28;20506;-72
2021/07/26 05:48:30;;;;;;;38.83;36.10;;;;;;;;;;4955260;28;20807;-73
2021/07/26 05:50:57;;;;;;;39.60;36.47;;;;;;;;;;4957300;28;20465;-71
2021/07/26 05:53:24;;;;;;;38.90;36.10;;;;;;;;;;4952918;29;20476;-69
2021/07/26 05:55:53;;;;;;;40.67;37.73;;;;;;;;;;4949650;28;20471;-70
2021/07/26 05:58:20;;;;;;;39.57;36.77;;;;;;;;;;4940207;28;20981;-71
2021/07/26 06:00:57;;;;;;;40.23;37.43;;;;;;;;;;4956040;28;20452;-71
2021/07/26 06:03:25;;;;;;;39.40;36.40;;;;;;;;;;4954736;28;20500;-71
2021/07/26 06:05:52;;;;;;;41.23;38.23;;;;;;;;;;4955902;29;20574;-71
2021/07/26 06:08:19;;;;;;;40.50;37.70;;;;;;;;;;4955016;28;20479;-68
2021/07/26 06:10:46;;;;;;;41.50;38.60;;;;;;;;;;4954309;28;20843;-68
2021/07/26 06:13:14;;;;;;;57.57;53.53;;;;;;;;;;4944691;28;20489;-71
2021/07/26 06:15:41;;;;;;;40.20;37.37;;;;;;;;;;4955158;29;20494;-73
2021/07/26 06:18:08;;;;;;;43.33;40.03;;;;;;;;;;4952422;28;20474;-72
2021/07/26 06:20:36;;;;;;;40.50;37.37;;;;;;;;;;4953968;28;20464;-73
2021/07/26 06:23:03;;;;;;;39.40;36.27;;;;;;;;;;4952005;28;20488;-73
2021/07/26 06:25:30;;;;;;;37.77;35.17;;;;;;;;;;4955676;28;20856;-73
2021/07/26 06:27:57;;;;;;;38.67;35.77;;;;;;;;;;4955404;28;20452;-73
2021/07/26 06:30:25;;;;;;;36.10;33.70;;;;;;;;;;4953931;28;20472;-73
2021/07/26 06:32:53;;;;;;;34.93;32.60;;;;;;;;;;4953431;28;21041;-73
2021/07/26 06:35:20;;;;;;;37.73;34.77;;;;;;;;;;4955838;28;20492;-73
2021/07/26 06:37:47;;;;;;;36.93;34.30;;;;;;;;;;4951621;28;20468;-73
2021/07/26 06:40:15;;;;;;;36.00;33.60;;;;;;;;;;4951106;29;20473;-73
2021/07/26 06:42:42;;;;;;;33.20;30.83;;;;;;;;;;4954647;28;20538;-73
2021/07/26 06:45:11;;;;;;;35.80;33.20;;;;;;;;;;4954126;28;20836;-73
2021/07/26 06:47:39;;;;;;;36.53;33.90;;;;;;;;;;4953800;28;20977;-72
2021/07/26 06:50:07;;;;;;;34.43;32.13;;;;;;;;;;4955233;28;20461;-73
2021/07/26 06:52:34;;;;;;;35.27;32.77;;;;;;;;;;4951684;28;20488;-72
2021/07/26 06:55:01;;;;;;;34.23;31.93;;;;;;;;;;4952739;28;20494;-73
2021/07/26 06:57:28;;;;;;;34.53;32.03;;;;;;;;;;4953908;28;20450;-72
2021/07/26 06:59:55;;;;;;;34.80;32.40;;;;;;;;;;4953796;28;20464;-73
2021/07/26 07:02:22;;;;;;;32.40;29.90;;;;;;;;;;4954136;29;20492;-72
2021/07/26 07:04:51;;;;;;;33.07;30.90;;;;;;;;;;4954039;28;20456;-73
2021/07/26 07:07:18;;;;;;;33.03;30.63;;;;;;;;;;4953968;28;20499;-73
2021/07/26 07:09:45;;;;;;;33.53;30.67;;;;;;;;;;4950843;28;20464;-73
2021/07/26 07:12:12;;;;;;;32.20;29.83;;;;;;;;;;4953322;28;20506;-73
2021/07/26 07:14:40;;;;;;;33.07;30.47;;;;;;;;;;4953906;28;20456;-72
2021/07/26 07:17:07;;;;;;;31.23;29.13;;;;;;;;;;4947566;29;20452;-72
2021/07/26 07:19:37;;;;;;;30.40;28.30;;;;;;;;;;4954559;28;20454;-74
2021/07/26 07:22:05;;;;;;;30.20;28.33;;;;;;;;;;4950762;29;20519;-72
2021/07/26 07:24:32;;;;;;;29.70;27.80;;;;;;;;;;4952451;28;20476;-73
2021/07/26 07:26:59;;;;;;;28.17;26.40;;;;;;;;;;4953369;28;20510;-73
2021/07/26 07:29:26;;;;;;;28.73;27.03;;;;;;;;;;4954517;28;20470;-73
2021/07/26 07:31:54;;;;;;;29.67;27.93;;;;;;;;;;4953282;28;21014;-73
2021/07/26 07:34:21;;;;;;;34.30;32.20;;;;;;;;;;4954613;28;20462;-72
2021/07/26 07:36:48;;;;;;;33.73;31.53;;;;;;;;;;4953439;28;20479;-72
2021/07/26 07:39:16;;;;;;;34.17;32.07;;;;;;;;;;4952495;28;20476;-72
2021/07/26 07:41:43;;;;;;;34.37;32.20;;;;;;;;;;4951095;28;20502;-72
2021/07/26 07:44:10;;;;;;;32.87;30.77;;;;;;;;;;4954559;28;20456;-72
2021/07/26 07:46:37;;;;;;;32.53;30.57;;;;;;;;;;4952986;28;20854;-72
2021/07/26 07:49:05;;;;;;;34.27;32.07;;;;;;;;;;4954284;28;20471;-72
2021/07/26 07:51:33;;;;;;;34.33;31.97;;;;;;;;;;4953045;28;20503;-72
2021/07/26 07:54:00;;;;;;;32.93;30.83;;;;;;;;;;4951901;28;20472;-72
2021/07/26 07:56:28;;;;;;;33.50;31.07;;;;;;;;;;4952934;28;20464;-72
2021/07/26 07:58:59;;;;;;;32.83;30.73;;;;;;;;;;4951891;28;20472;-72
2021/07/26 08:01:30;;;;;;;31.20;29.30;;;;;;;;;;4952750;28;20492;-72
2021/07/26 08:03:58;;;;;;;32.80;30.70;;;;;;;;;;4952554;28;20986;-72
2021/07/26 08:06:25;;;;;;;31.90;29.90;;;;;;;;;;4954161;28;20484;-72
2021/07/26 08:08:52;;;;;;;33.47;31.43;;;;;;;;;;4949890;28;20837;-72
2021/07/26 08:11:19;;;;;;;31.23;29.53;;;;;;;;;;4953996;28;20475;-72
2021/07/26 08:13:47;;;;;;;31.50;29.20;;;;;;;;;;4950227;28;20982;-72
2021/07/26 08:16:14;;;;;;;30.30;28.60;;;;;;;;;;4952696;28;20956;-72
2021/07/26 08:18:42;;;;;;;30.10;28.30;;;;;;;;;;4952251;28;20468;-72
2021/07/26 08:21:09;;;;;;;31.00;28.87;;;;;;;;;;4952283;28;20494;-72
2021/07/26 08:23:36;;;;;;;30.10;28.40;;;;;;;;;;4953884;28;20782;-72
2021/07/26 08:26:03;;;;;;;30.43;28.73;;;;;;;;;;4950780;28;21003;-72
2021/07/26 08:28:30;;;;;;;30.60;28.80;;;;;;;;;;4952773;28;20468;-72
2021/07/26 08:31:00;;;;;;;28.77;27.17;;;;;;;;;;4953035;28;20467;-72
2021/07/26 08:33:27;;;;;;;29.13;27.43;;;;;;;;;;4953568;28;20440;-72
2021/07/26 08:35:57;;;;;;;29.97;28.27;;;;;;;;;;4950679;28;20477;-72
2021/07/26 08:38:24;;;;;;;30.80;28.80;;;;;;;;;;4953822;28;20440;-72
2021/07/26 08:40:51;;;;;;;29.13;27.43;;;;;;;;;;4952772;28;20466;-72
2021/07/26 08:43:20;;;;;;;29.60;27.87;;;;;;;;;;4952357;28;20584;-72
2021/07/26 08:45:47;;;;;;;29.70;27.80;;;;;;;;;;4951484;28;20464;-72
2021/07/26 08:48:16;;;;;;;31.53;29.60;;;;;;;;;;4953910;28;20452;-72
2021/07/26 08:50:44;;;;;;;30.57;28.67;;;;;;;;;;4953011;28;20458;-72
2021/07/26 08:53:11;;;;;;;33.20;30.83;;;;;;;;;;4953414;28;20492;-72
2021/07/26 08:55:38;;;;;;;34.53;32.23;;;;;;;;;;4952664;28;20472;-72
2021/07/26 08:58:05;;;;;;;32.60;30.67;;;;;;;;;;4952111;28;20483;-72
2021/07/26 09:00:32;;;;;;;33.87;31.77;;;;;;;;;;4936766;28;20510;-72
2021/07/26 09:03:00;;;;;;;34.07;31.97;;;;;;;;;;4948375;28;20498;-72
2021/07/26 09:05:28;;;;;;;32.90;30.77;;;;;;;;;;4951209;28;20855;-72
2021/07/26 09:07:55;;;;;;;35.20;33.00;;;;;;;;;;4952512;28;20487;-72
2021/07/26 09:10:23;;;;;;;30.80;28.80;;;;;;;;;;4952900;28;20460;-71
2021/07/26 09:12:52;;;;;;;35.47;33.27;;;;;;;;;;4952507;28;20847;-72
2021/07/26 09:15:26;;;;;;;33.77;31.87;;;;;;;;;;4953636;28;20456;-72
2021/07/26 09:17:54;;;;;;;36.13;33.63;;;;;;;;;;4951700;28;20559;-72
2021/07/26 09:20:24;;;;;;;35.13;33.10;;;;;;;;;;4947174;28;20479;-72
2021/07/26 09:22:52;;;;;;;34.07;31.93;;;;;;;;;;4951297;28;20515;-72
2021/07/26 09:25:21;;;;;;;36.27;34.07;;;;;;;;;;4951081;28;20869;-72
2021/07/26 09:28:01;;;;;;;35.47;33.40;;;;;;;;;;4955250;28;20495;-72
2021/07/26 09:30:29;;;;;;;38.00;35.70;;;;;;;;;;4954628;28;20841;-71
2021/07/26 09:32:56;;;;;;;33.10;31.03;;;;;;;;;;4952877;28;20492;-72
2021/07/26 09:35:24;;;;;;;38.97;36.57;;;;;;;;;;4952101;29;20540;-72
2021/07/26 09:37:59;;;;;;;41.13;38.60;;;;;;;;;;4954021;28;20464;-72
2021/07/26 09:40:30;;;;;;;34.20;32.00;;;;;;;;;;4953414;28;20482;-71
2021/07/26 09:42:57;;;;;;;33.80;31.70;;;;;;;;;;4953352;28;20484;-72
2021/07/26 09:45:25;;;;;;;36.33;34.03;;;;;;;;;;4952417;28;20472;-72
2021/07/26 09:48:09;;;;;;;36.10;33.70;;;;;;;;;;4952930;28;20511;-72
2021/07/26 09:50:36;;;;;;;39.37;36.93;;;;;;;;;;4952831;28;20530;-71
2021/07/26 09:53:15;;;;;;;37.33;34.90;;;;;;;;;;4955356;28;20506;-73
2021/07/26 09:55:43;;;;;;;37.97;35.47;;;;;;;;;;4953852;28;20468;-70
2021/07/26 09:58:11;;;;;;;50.43;47.03;;;;;;;;;;4949892;29;20832;-73
2021/07/26 10:00:38;;;;;;;75.40;70.83;;;;;;;;;;4949684;28;20498;-69
2021/07/26 10:03:07;;;;;;;67.90;63.60;;;;;;;;;;4956868;29;20991;-69
2021/07/26 10:05:35;;;;;;;70.13;65.73;;;;;;;;;;4952880;28;21344;-71
2021/07/26 10:08:03;;;;;;;84.90;79.50;;;;;;;;;;4949199;29;20495;-68
2021/07/26 10:10:33;;;;;;;130.97;123.77;;;;;;;;;;4948023;29;20547;-69
2021/07/26 10:13:00;;;;;;;139.27;131.77;;;;;;;;;;4955694;28;20484;-68
2021/07/26 10:15:29;;;;;;;122.53;115.73;;;;;;;;;;4951888;28;20470;-67
2021/07/26 10:17:56;;;;;;;112.03;105.40;;;;;;;;;;4950361;28;20472;-67
2021/07/26 10:20:26;;;;;;;100.80;95.00;;;;;;;;;;4949478;28;20470;-67
2021/07/26 10:22:55;;;;;;;94.07;88.63;;;;;;;;;;4950163;28;20850;-67
2021/07/26 10:25:27;;;;;;;88.03;82.73;;;;;;;;;;4945980;29;20827;-67
2021/07/26 10:27:58;;;;;;;77.10;72.40;;;;;;;;;;4953660;28;20484;-67
2021/07/26 10:30:32;;;;;;;77.03;72.43;;;;;;;;;;4955776;28;20452;-68
2021/07/26 10:33:00;;;;;;;77.00;72.50;;;;;;;;;;4953100;28;20487;-67
2021/07/26 10:35:35;;;;;;;72.70;68.13;;;;;;;;;;4956711;28;20460;-67
2021/07/26 10:38:02;;;;;;;68.90;64.70;;;;;;;;;;4953894;28;20476;-67
2021/07/26 10:40:29;;;;;;;66.20;62.10;;;;;;;;;;4955274;28;21188;-67
2021/07/26 10:43:01;;;;;;;65.60;61.40;;;;;;;;;;4953692;28;20506;-67
2021/07/26 10:45:46;;;;;;;61.80;57.90;;;;;;;;;;4956159;28;20436;-67
2021/07/26 10:48:32;;;;;;;61.90;58.10;;;;;;;;;;4955960;28;20494;-67
2021/07/26 10:51:00;;;;;;;72.37;67.97;;;;;;;;;;4951789;28;20495;-66
2021/07/26 10:53:46;;;;;;;64.40;60.60;;;;;;;;;;4955779;28;20465;-67
2021/07/26 10:56:15;;;;;;;68.13;64.13;;;;;;;;;;4956115;28;20472;-67
2021/07/26 10:59:03;;;;;;;60.10;56.40;;;;;;;;;;4955867;28;20472;-67
2021/07/26 11:01:57;;;;;;;60.87;57.17;;;;;;;;;;4954300;28;21018;-67
2021/07/26 11:04:44;;;;;;;60.00;56.33;;;;;;;;;;4947159;28;20958;-68
2021/07/26 11:07:28;;;;;;;58.03;54.43;;;;;;;;;;4957531;28;20523;-68
2021/07/26 11:09:55;;;;;;;57.47;54.07;;;;;;;;;;4954991;28;20495;-67
2021/07/26 11:12:41;;;;;;;60.80;57.30;;;;;;;;;;4965723;28;20467;-67
2021/07/26 11:15:15;;;;;;;61.93;58.23;;;;;;;;;;4967994;28;20472;-68
2021/07/26 11:18:01;;;;;;;59.73;56.10;;;;;;;;;;4960129;28;20460;-67
2021/07/26 11:20:46;;;;;;;56.57;53.07;;;;;;;;;;4955005;28;20464;-68
2021/07/26 11:23:36;;;;;;;60.03;56.47;;;;;;;;;;4956161;28;20522;-68
2021/07/26 11:26:03;;;;;;;60.10;56.50;;;;;;;;;;4954127;29;20456;-69
2021/07/26 11:28:36;;;;;;;52.73;49.43;;;;;;;;;;4955643;28;20494;-68
2021/07/26 11:31:03;;;;;;;56.30;53.00;;;;;;;;;;4954475;28;20471;-67
2021/07/26 11:33:31;;;;;;;55.70;52.50;;;;;;;;;;4956363;28;20468;-67
2021/07/26 11:35:59;;;;;;;54.67;51.47;;;;;;;;;;4957425;28;20495;-67
2021/07/26 11:38:27;;;;;;;50.93;48.03;;;;;;;;;;4955165;28;20823;-67
2021/07/26 11:40:55;;;;;;;41.50;38.90;;;;;;;;;;4954358;28;20472;-67
2021/07/26 11:43:34;;;;;;;47.20;44.00;;;;;;;;;;4982052;23;20505;-63
2021/07/26 11:46:01;;;;;;;44.83;42.13;;;;;;;;;;4964605;28;20771;-63
2021/07/26 11:48:29;;;;;;;37.83;35.33;;;;;;;;;;4972781;28;20479;-63
2021/07/26 11:50:56;;;;;;;35.53;33.13;;;;;;;;;;4972096;28;20465;-63
2021/07/26 11:53:30;;;;;;;34.43;32.27;;;;;;;;;;4971219;28;20479;-64
2021/07/26 11:55:57;;;;;;;32.70;30.70;;;;;;;;;;4972311;28;20459;-64
2021/07/26 11:58:27;;;;;;;31.47;29.47;;;;;;;;;;4971498;28;20451;-62
2021/07/26 12:00:55;;;;;;;31.97;29.97;;;;;;;;;;4971443;28;20471;-67
2021/07/26 12:03:25;;;;;;;31.07;29.03;;;;;;;;;;4971207;28;21010;-66
2021/07/26 12:06:02;;;;;;;30.80;28.90;;;;;;;;;;4972636;28;20459;-66
2021/07/26 12:08:31;;;;;;;31.60;29.20;;;;;;;;;;4970159;28;20479;-67
2021/07/26 12:10:58;;;;;;;30.30;28.30;;;;;;;;;;4966265;28;20987;-67
2021/07/26 12:13:25;;;;;;;30.20;28.30;;;;;;;;;;4971268;28;20483;-66
2021/07/26 12:16:07;;;;;;;30.67;28.67;;;;;;;;;;4971712;28;20471;-66
2021/07/26 12:18:34;;;;;;;29.70;27.80;;;;;;;;;;4971058;28;20467;-66
2021/07/26 12:21:02;;;;;;;30.50;28.60;;;;;;;;;;4970193;28;20480;-68
2021/07/26 12:23:31;;;;;;;29.37;27.57;;;;;;;;;;4969113;28;20491;-66
2021/07/26 12:25:59;;;;;;;30.83;29.00;;;;;;;;;;4969440;28;20467;-67
2021/07/26 12:28:40;;;;;;;30.03;28.13;;;;;;;;;;4972909;28;20495;-67
2021/07/26 12:31:22;;;;;;;29.40;27.60;;;;;;;;;;4971557;28;20979;-66
2021/07/26 12:33:49;;;;;;;28.80;27.00;;;;;;;;;;4972439;28;20475;-66
2021/07/26 12:36:17;;;;;;;28.77;27.07;;;;;;;;;;4972815;28;20901;-67
2021/07/26 12:39:01;;;;;;;27.80;26.10;;;;;;;;;;4972528;28;20815;-66
2021/07/26 12:41:30;;;;;;;26.83;25.33;;;;;;;;;;4960605;28;20948;-66
2021/07/26 12:44:09;;;;;;;24.80;23.40;;;;;;;;;;4966291;28;20489;-67
2021/07/26 12:46:37;;;;;;;25.73;24.03;;;;;;;;;;4972781;28;20446;-67
2021/07/26 12:49:04;;;;;;;24.73;23.10;;;;;;;;;;4972416;28;20487;-66
2021/07/26 12:51:31;;;;;;;25.20;23.70;;;;;;;;;;4971697;28;20825;-68
2021/07/26 12:54:00;;;;;;;25.43;23.93;;;;;;;;;;4972658;28;20566;-68
2021/07/26 12:56:27;;;;;;;26.00;24.40;;;;;;;;;;4972063;28;20455;-67
2021/07/26 12:58:54;;;;;;;26.80;25.30;;;;;;;;;;4972217;28;20460;-66
2021/07/26 13:01:21;;;;;;;26.10;24.60;;;;;;;;;;4960272;28;20451;-67
2021/07/26 13:03:48;;;;;;;28.70;26.90;;;;;;;;;;4972376;28;21001;-66
2021/07/26 13:06:16;;;;;;;27.50;25.90;;;;;;;;;;4969294;28;20475;-66
2021/07/26 13:08:43;;;;;;;26.10;24.60;;;;;;;;;;4972748;28;20513;-67
2021/07/26 13:11:11;;;;;;;25.83;24.33;;;;;;;;;;4971681;28;20466;-66
2021/07/26 13:13:38;;;;;;;25.50;24.10;;;;;;;;;;4971055;28;20574;-66
2021/07/26 13:16:06;;;;;;;27.07;25.47;;;;;;;;;;4971674;28;20452;-67
2021/07/26 13:18:33;;;;;;;25.83;24.33;;;;;;;;;;4972562;28;20447;-67
2021/07/26 13:21:00;;;;;;;25.40;24.00;;;;;;;;;;4972650;28;20458;-67
2021/07/26 13:23:27;;;;;;;25.10;23.70;;;;;;;;;;4971743;28;20468;-66
2021/07/26 13:25:54;;;;;;;24.97;23.57;;;;;;;;;;4970618;28;20483;-66
2021/07/26 13:28:24;;;;;;;24.50;23.10;;;;;;;;;;4972077;28;20486;-67
2021/07/26 13:30:51;;;;;;;25.13;23.63;;;;;;;;;;4975551;28;20451;-66
2021/07/26 13:33:18;;;;;;;24.23;22.93;;;;;;;;;;4975972;28;20498;-66
2021/07/26 13:35:45;;;;;;;24.77;23.47;;;;;;;;;;4976359;28;20458;-66
2021/07/26 13:38:12;;;;;;;25.80;24.30;;;;;;;;;;4976049;28;20455;-66
2021/07/26 13:40:39;;;;;;;24.97;23.63;;;;;;;;;;4961551;28;20452;-66
2021/07/26 13:43:06;;;;;;;24.87;23.47;;;;;;;;;;4971407;28;20483;-67
2021/07/26 13:45:35;;;;;;;24.03;22.63;;;;;;;;;;4976071;28;20443;-68
2021/07/26 13:48:03;;;;;;;24.27;22.87;;;;;;;;;;4975484;28;20574;-65
2021/07/26 13:50:30;;;;;;;28.57;26.97;;;;;;;;;;4963315;28;20467;-68
2021/07/26 13:52:57;;;;;;;29.77;28.07;;;;;;;;;;4972748;28;20485;-66
2021/07/26 13:55:25;;;;;;;29.30;27.50;;;;;;;;;;4975754;28;20455;-67
2021/07/26 13:57:52;;;;;;;28.67;26.97;;;;;;;;;;4970030;28;20460;-67
2021/07/26 14:00:20;;;;;;;28.83;27.20;;;;;;;;;;4973031;28;20454;-66
2021/07/26 14:02:49;;;;;;;26.70;25.10;;;;;;;;;;4975481;28;20627;-66
2021/07/26 14:05:16;;;;;;;29.00;27.27;;;;;;;;;;4974590;28;20852;-68
2021/07/26 14:07:43;;;;;;;28.47;26.83;;;;;;;;;;4974320;28;20455;-66
2021/07/26 14:10:11;;;;;;;27.13;25.63;;;;;;;;;;4975474;28;20451;-69
2021/07/26 14:12:38;;;;;;;27.37;25.67;;;;;;;;;;4974677;28;20482;-66
2021/07/26 14:15:06;;;;;;;28.60;27.00;;;;;;;;;;4974389;28;20465;-65
2021/07/26 14:17:33;;;;;;;27.63;26.03;;;;;;;;;;4975150;28;20455;-66
2021/07/26 14:20:01;;;;;;;28.83;27.17;;;;;;;;;;4975279;28;20456;-66
2021/07/26 14:22:28;;;;;;;27.60;25.90;;;;;;;;;;4974979;28;20447;-68
2021/07/26 14:24:55;;;;;;;27.97;26.20;;;;;;;;;;4958160;28;20546;-66